Bloomingville, Ohio
Current Conditions -  °F | °C
As of 5:33 PM on Sunday 23 Nov 2014 (Local Time) from KPCW Reporting Station
Broken Clouds Broken Clouds  
Wind Chill: 54°   Ceiling: 7000
Heat Index: 54°   Visibility: 10mi
Dew Point: 43°   Wind: 10mph
Humidity: 67%   Direction: 130°SE
Pressure: 29.63"   Gusts: NA
Location:  41.4028°N, 82.7181°W
Report Text: KPCW 232233Z AUTO 13009KT 10SM BKN070 BKN100 12/06 A2963 RMK AO2 BKN V
Loading
Personal Weather Stations






























Interactive Weather Map New forecast layout! Learn more

10-Day Weather Forecast

Advertisements
Track Severe Weather on mobile